createdAt,value
2022-12-04T00:00:01.759Z,97181.88
2022-12-04T00:02:31.249Z,96909.28
2022-12-04T00:04:58.679Z,97101.38
2022-12-04T00:07:25.432Z,97176.56
2022-12-04T00:09:52.355Z,97179.03
2022-12-04T00:12:19.017Z,97025.97
2022-12-04T00:15:23.295Z,97040.41
2022-12-04T00:17:32.171Z,97115.28
2022-12-04T00:19:58.736Z,97116.50
2022-12-04T00:22:25.305Z,97195.88
2022-12-04T00:24:51.935Z,97091.13
2022-12-04T00:27:18.631Z,97188.66
2022-12-04T00:29:45.239Z,97120.31
2022-12-04T00:32:11.776Z,97159.34
2022-12-04T00:34:38.349Z,97182.41
2022-12-04T00:37:04.971Z,97008.34
2022-12-04T00:39:31.575Z,97165.00
2022-12-04T00:41:58.155Z,97045.28
2022-12-04T00:44:24.918Z,97104.31
2022-12-04T00:46:51.473Z,97138.56
2022-12-04T00:49:18.112Z,97004.34
2022-12-04T00:51:44.649Z,97158.44
2022-12-04T00:54:11.207Z,97079.72
2022-12-04T00:56:37.821Z,97158.56
2022-12-04T00:59:04.460Z,97158.44
2022-12-04T01:01:31.288Z,97149.69
2022-12-04T01:03:58.213Z,96977.66
2022-12-04T01:06:28.319Z,97147.47
2022-12-04T01:08:56.199Z,97154.19
2022-12-04T01:11:24.500Z,97049.63
2022-12-04T01:13:51.262Z,97148.84
2022-12-04T01:16:21.485Z,97155.72
2022-12-04T01:18:48.253Z,97155.59
2022-12-04T01:21:15.138Z,97152.03
2022-12-04T01:23:41.739Z,97045.91
2022-12-04T01:26:08.611Z,96979.16
2022-12-04T01:28:35.208Z,96981.41
2022-12-04T01:31:01.840Z,97137.09
2022-12-04T01:33:29.567Z,97152.91
2022-12-04T01:35:58.308Z,97150.81
2022-12-04T01:38:25.752Z,97154.91
2022-12-04T01:40:52.945Z,97139.31
2022-12-04T01:43:20.594Z,96932.94
2022-12-04T01:45:55.664Z,97131.78
2022-12-04T01:48:35.456Z,97126.31
2022-12-04T01:51:08.275Z,97128.00
2022-12-04T01:53:38.632Z,97038.19
2022-12-04T01:56:06.463Z,97128.00
2022-12-04T01:58:38.836Z,96905.28
2022-12-04T02:01:09.033Z,97120.19
2022-12-04T02:03:36.754Z,97046.28
2022-12-04T02:06:03.473Z,97031.06
2022-12-04T02:08:30.632Z,97124.28
2022-12-04T02:11:13.041Z,97063.44
2022-12-04T02:14:12.893Z,97126.91
2022-12-04T02:16:46.866Z,97123.63
2022-12-04T02:19:38.061Z,97128.13
2022-12-04T02:22:20.912Z,97095.88
2022-12-04T02:25:04.726Z,96925.28
2022-12-04T02:27:40.256Z,97138.53
2022-12-04T02:30:13.059Z,97142.75
2022-12-04T02:32:45.546Z,97084.75
2022-12-04T02:35:27.907Z,97153.28
2022-12-04T02:38:21.233Z,97145.50
2022-12-04T02:40:56.931Z,97089.09
2022-12-04T02:43:34.794Z,97155.31
2022-12-04T02:46:20.475Z,97097.03
2022-12-04T02:48:50.137Z,97152.72
2022-12-04T02:51:20.260Z,97062.59
2022-12-04T02:53:52.931Z,97144.22
2022-12-04T02:56:30.554Z,97142.84
2022-12-04T02:59:05.308Z,97135.88
2022-12-04T03:01:34.929Z,97136.81
2022-12-04T03:04:05.580Z,97044.44
2022-12-04T03:06:38.313Z,97128.06
2022-12-04T03:09:11.076Z,97125.34
2022-12-04T03:11:40.285Z,97117.53
2022-12-04T03:14:22.215Z,97018.75
2022-12-04T03:16:52.318Z,97046.56
2022-12-04T03:19:23.505Z,97108.53
2022-12-04T03:21:58.212Z,97105.25
2022-12-04T03:24:28.249Z,97103.88
2022-12-04T03:27:32.760Z,97107.28
2022-12-04T03:30:09.133Z,97096.50
2022-12-04T03:32:46.395Z,96948.53
2022-12-04T03:35:38.901Z,96958.22
2022-12-04T03:38:25.686Z,97088.72
2022-12-04T03:41:24.858Z,97081.84
2022-12-04T03:44:15.662Z,97085.28
2022-12-04T03:46:54.839Z,97085.16
2022-12-04T03:49:40.517Z,97079.13
2022-12-04T03:52:24.673Z,96836.84
2022-12-04T03:55:04.224Z,96853.00
2022-12-04T03:57:37.328Z,97078.47
2022-12-04T04:00:23.026Z,97068.72
2022-12-04T04:03:01.089Z,97066.97
2022-12-04T04:05:30.108Z,96890.41
2022-12-04T04:08:19.799Z,97043.69
2022-12-04T04:10:47.663Z,96914.13
2022-12-04T04:13:39.388Z,97065.34
2022-12-04T04:16:26.772Z,97064.53
2022-12-04T04:19:15.321Z,96956.94
2022-12-04T04:22:02.842Z,96992.63
2022-12-04T04:24:46.892Z,97057.97
2022-12-04T04:27:13.771Z,97053.59
2022-12-04T04:29:42.433Z,97001.56
2022-12-04T04:32:41.027Z,97051.00
2022-12-04T04:35:29.908Z,97041.25
2022-12-04T04:38:17.778Z,97047.56
2022-12-04T04:41:00.087Z,96991.25
2022-12-04T04:43:37.465Z,96856.66
2022-12-04T04:46:04.109Z,97054.94
2022-12-04T04:48:53.547Z,96950.34
2022-12-04T04:51:20.649Z,96885.22
2022-12-04T04:53:53.803Z,97053.81
2022-12-04T04:56:21.213Z,97055.84
2022-12-04T04:58:47.880Z,96946.75
2022-12-04T05:01:19.060Z,97051.06
2022-12-04T05:03:46.075Z,97062.53
2022-12-04T05:06:12.785Z,97069.50
2022-12-04T05:08:39.524Z,97032.63
2022-12-04T05:11:06.886Z,97079.88
2022-12-04T05:13:33.605Z,97048.16
2022-12-04T05:16:03.013Z,97105.28
2022-12-04T05:18:30.998Z,97076.41
2022-12-04T05:20:58.069Z,97008.81
2022-12-04T05:23:25.708Z,97031.75
2022-12-04T05:25:59.476Z,96939.69
2022-12-04T05:28:26.101Z,96968.47
2022-12-04T05:30:57.334Z,97077.94
2022-12-04T05:33:24.248Z,96942.97
2022-12-04T05:35:58.018Z,97076.16
2022-12-04T05:38:24.604Z,97012.03
2022-12-04T05:40:51.199Z,97080.97
2022-12-04T05:43:17.820Z,96927.94
2022-12-04T05:45:44.406Z,97019.16
2022-12-04T05:48:11.103Z,96942.47
2022-12-04T05:50:40.554Z,97088.50
2022-12-04T05:53:07.081Z,97094.53
2022-12-04T05:55:33.946Z,96893.25
2022-12-04T05:58:00.600Z,96959.69
2022-12-04T06:00:28.568Z,97090.28
2022-12-04T06:02:55.242Z,96921.84
2022-12-04T06:05:21.928Z,97096.44
2022-12-04T06:07:48.594Z,96961.19
2022-12-04T06:10:15.289Z,96894.19
2022-12-04T06:12:41.931Z,97099.72
2022-12-04T06:15:08.780Z,97037.47
2022-12-04T06:17:35.344Z,96922.94
2022-12-04T06:20:07.917Z,97066.00
2022-12-04T06:22:37.623Z,96864.06
2022-12-04T06:25:04.451Z,97109.84
2022-12-04T06:27:31.175Z,97104.53
2022-12-04T06:29:58.921Z,97112.31
2022-12-04T06:32:26.148Z,97102.03
2022-12-04T06:34:54.158Z,97121.06
2022-12-04T06:37:23.308Z,97107.38
2022-12-04T06:39:50.210Z,97108.22
2022-12-04T06:42:16.840Z,96851.28
2022-12-04T06:44:43.446Z,96939.84
2022-12-04T06:47:10.088Z,97054.38
2022-12-04T06:49:36.651Z,97105.84
2022-12-04T06:52:03.868Z,97036.38
2022-12-04T06:54:30.553Z,97098.19
2022-12-04T06:56:57.149Z,96971.69
2022-12-04T06:59:23.842Z,97020.06
2022-12-04T07:01:50.677Z,97093.28
2022-12-04T07:04:17.470Z,97089.97
2022-12-04T07:06:44.037Z,97104.84
2022-12-04T07:09:14.778Z,97099.94
2022-12-04T07:11:43.195Z,97105.25
2022-12-04T07:14:11.156Z,97110.31
2022-12-04T07:16:41.716Z,97105.13
2022-12-04T07:19:13.688Z,97092.41
2022-12-04T07:21:41.467Z,96911.19
2022-12-04T07:24:15.075Z,97012.44
2022-12-04T07:26:41.700Z,97093.31
2022-12-04T07:29:08.464Z,97084.53
2022-12-04T07:31:35.153Z,97077.47
2022-12-04T07:34:02.812Z,97080.88
2022-12-04T07:36:29.375Z,96964.69
2022-12-04T07:38:56.615Z,97075.16
2022-12-04T07:41:26.168Z,97080.34
2022-12-04T07:43:55.751Z,97073.13
2022-12-04T07:46:25.782Z,97076.41
2022-12-04T07:48:52.739Z,97073.81
2022-12-04T07:51:22.223Z,97070.28
2022-12-04T07:53:49.340Z,97082.19
2022-12-04T07:56:16.712Z,97076.06
2022-12-04T07:58:43.983Z,97073.31
2022-12-04T08:01:17.924Z,97068.00
2022-12-04T08:03:48.388Z,96951.91
2022-12-04T08:06:19.756Z,97062.13
2022-12-04T08:08:46.937Z,97069.78
2022-12-04T08:11:17.604Z,97071.03
2022-12-04T08:13:44.715Z,96941.19
2022-12-04T08:16:15.477Z,97083.53
2022-12-04T08:18:51.432Z,97086.53
2022-12-04T08:21:21.984Z,96945.00
2022-12-04T08:23:51.104Z,97041.47
2022-12-04T08:26:18.977Z,97093.88
2022-12-04T08:28:45.615Z,96970.06
2022-12-04T08:31:24.121Z,97095.97
2022-12-04T08:33:53.632Z,97095.72
2022-12-04T08:36:22.287Z,97087.38
2022-12-04T08:38:49.227Z,97108.88
2022-12-04T08:41:17.989Z,96823.22
2022-12-04T08:43:47.232Z,96911.47
2022-12-04T08:46:16.298Z,97092.72
2022-12-04T08:48:43.515Z,97050.94
2022-12-04T08:51:15.880Z,97087.94
2022-12-04T08:53:42.490Z,97012.31
2022-12-04T08:56:09.563Z,96920.78
2022-12-04T08:58:36.336Z,97086.50
2022-12-04T09:01:08.316Z,96898.06
2022-12-04T09:03:35.320Z,97094.69
2022-12-04T09:06:04.554Z,96780.91
2022-12-04T09:08:31.973Z,97083.16
2022-12-04T09:11:16.472Z,97088.59
2022-12-04T09:13:44.241Z,97097.50
2022-12-04T09:16:17.090Z,97098.56
2022-12-04T09:18:44.163Z,96998.53
2022-12-04T09:21:13.073Z,97091.09
2022-12-04T09:23:40.262Z,97070.00
2022-12-04T09:26:21.538Z,96912.56
2022-12-04T09:28:49.036Z,97086.81
2022-12-04T09:31:16.121Z,97107.13
2022-12-04T09:33:43.207Z,97057.66
2022-12-04T09:36:15.850Z,97051.53
2022-12-04T09:38:44.549Z,97082.31
2022-12-04T09:41:29.797Z,97079.25
2022-12-04T09:44:18.847Z,96893.69
2022-12-04T09:46:59.250Z,97082.47
2022-12-04T09:49:41.139Z,96976.63
2022-12-04T09:52:22.147Z,96922.47
2022-12-04T09:54:52.292Z,97079.00
2022-12-04T09:57:38.220Z,97074.16
2022-12-04T10:00:13.757Z,97071.47
2022-12-04T10:02:42.801Z,97045.22
2022-12-04T10:05:41.185Z,97074.75
2022-12-04T10:08:38.407Z,97060.53
2022-12-04T10:11:21.919Z,97057.22
2022-12-04T10:14:02.939Z,97053.25
2022-12-04T10:16:54.801Z,97045.28
2022-12-04T10:19:24.362Z,97043.06
2022-12-04T10:22:17.005Z,97038.06
2022-12-04T10:24:45.994Z,97034.81
2022-12-04T10:27:23.805Z,97043.06
2022-12-04T10:29:55.897Z,97031.47
2022-12-04T10:32:30.485Z,97022.50
2022-12-04T10:35:15.314Z,97029.72
2022-12-04T10:37:44.525Z,96851.41
2022-12-04T10:40:18.429Z,96899.38
2022-12-04T10:42:55.496Z,96922.56
2022-12-04T10:45:23.740Z,96922.50
2022-12-04T10:47:52.380Z,97011.53
2022-12-04T10:50:26.726Z,97010.22
2022-12-04T10:52:53.318Z,97006.13
2022-12-04T10:55:34.303Z,97011.16
2022-12-04T10:58:02.709Z,96848.19
2022-12-04T11:00:34.822Z,97002.56
2022-12-04T11:03:19.886Z,96986.00
2022-12-04T11:05:55.448Z,96989.44
2022-12-04T11:08:30.938Z,96811.53
2022-12-04T11:11:01.364Z,96975.69
2022-12-04T11:13:29.487Z,96924.91
2022-12-04T11:16:06.504Z,96964.53
2022-12-04T11:18:47.175Z,96956.56
2022-12-04T11:21:23.361Z,96936.91
2022-12-04T11:23:52.277Z,96940.53
2022-12-04T11:26:38.434Z,96942.28
2022-12-04T11:29:13.774Z,96793.38
2022-12-04T11:31:40.611Z,96927.31
2022-12-04T11:34:14.508Z,96900.50
2022-12-04T11:36:42.107Z,96816.34
2022-12-04T11:39:11.655Z,96938.91
2022-12-04T11:41:41.380Z,96940.09
2022-12-04T11:44:31.228Z,96939.44
2022-12-04T11:47:00.174Z,96924.47
2022-12-04T11:49:27.447Z,96949.97
2022-12-04T11:51:56.954Z,96953.59
2022-12-04T11:54:50.862Z,96918.84
2022-12-04T11:57:51.671Z,96937.50
2022-12-04T12:00:20.655Z,96940.50
2022-12-04T12:03:06.175Z,96938.75
2022-12-04T12:06:07.475Z,96940.53
2022-12-04T12:08:59.461Z,96791.41
2022-12-04T12:11:38.057Z,96926.22
2022-12-04T12:14:17.718Z,96917.09
2022-12-04T12:16:48.379Z,96925.28
2022-12-04T12:19:25.816Z,96925.44
2022-12-04T12:22:26.440Z,96924.78
2022-12-04T12:25:17.188Z,96909.41
2022-12-04T12:27:50.499Z,96922.16
2022-12-04T12:30:22.546Z,96859.66
2022-12-04T12:33:01.341Z,96904.53
2022-12-04T12:35:38.935Z,96913.47
2022-12-04T12:38:12.950Z,96920.50
2022-12-04T12:40:47.534Z,96925.38
2022-12-04T12:43:30.304Z,96890.88
2022-12-04T12:46:18.028Z,96904.09
2022-12-04T12:49:00.598Z,96895.28
2022-12-04T12:51:33.644Z,96908.84
2022-12-04T12:54:11.258Z,96852.81
2022-12-04T12:56:47.937Z,96787.31
2022-12-04T12:59:21.885Z,96904.13
2022-12-04T13:04:48.872Z,96857.91
2022-12-04T13:16:23.428Z,96880.38
2022-12-04T13:19:13.457Z,96844.00
2022-12-04T13:21:40.034Z,96824.91
2022-12-04T13:24:15.882Z,96880.84
2022-12-04T13:27:05.553Z,96880.03
2022-12-04T13:30:02.873Z,96873.63
2022-12-04T13:32:48.129Z,96875.13
2022-12-04T13:35:29.847Z,96873.81
2022-12-04T13:38:57.834Z,96872.66
2022-12-04T13:41:27.738Z,96874.94
2022-12-04T13:43:55.491Z,96872.47
2022-12-04T13:46:34.181Z,96874.31
2022-12-04T13:49:17.572Z,96869.41
2022-12-04T13:51:46.113Z,96854.16
2022-12-04T13:54:12.618Z,96868.56
2022-12-04T13:57:14.519Z,96875.91
2022-12-04T13:59:41.971Z,96868.88
2022-12-04T14:02:35.103Z,96875.72
2022-12-04T14:05:06.044Z,96875.03
2022-12-04T14:07:38.529Z,96868.34
2022-12-04T14:10:25.735Z,96727.06
2022-12-04T14:13:01.030Z,96871.25
2022-12-04T14:15:31.174Z,96857.22
2022-12-04T14:18:02.636Z,96862.28
2022-12-04T14:20:34.409Z,96822.91
2022-12-04T14:23:26.615Z,96720.84
2022-12-04T14:25:58.706Z,96771.38
2022-12-04T14:28:31.415Z,96845.25
2022-12-04T14:31:15.906Z,96848.63
2022-12-04T14:33:49.204Z,96845.38
2022-12-04T14:36:37.444Z,96855.19
2022-12-04T14:39:27.839Z,96858.09
2022-12-04T14:42:05.803Z,96852.88
2022-12-04T14:44:32.603Z,96777.69
2022-12-04T14:47:38.278Z,96848.59
2022-12-04T14:50:38.573Z,96853.94
2022-12-04T14:53:29.449Z,96847.09
2022-12-04T14:56:20.559Z,96839.09
2022-12-04T14:58:47.452Z,96812.22
2022-12-04T15:01:37.176Z,96852.78
2022-12-04T15:04:27.663Z,96847.41
2022-12-04T15:06:59.871Z,96840.09
2022-12-04T15:09:47.454Z,96789.41
2022-12-04T15:12:34.378Z,96842.34
2022-12-04T15:15:03.631Z,96831.84
2022-12-04T15:17:33.228Z,96820.44
2022-12-04T15:20:14.514Z,96837.88
2022-12-04T15:22:41.310Z,96666.88
2022-12-04T15:25:19.388Z,96843.56
2022-12-04T15:27:55.321Z,96716.63
2022-12-04T15:30:30.138Z,96835.06
2022-12-04T15:32:57.077Z,96702.81
2022-12-04T15:35:31.995Z,96761.88
2022-12-04T15:37:59.099Z,96790.16
2022-12-04T15:40:28.558Z,96849.91
2022-12-04T15:43:07.058Z,96658.16
2022-12-04T15:45:34.727Z,96791.53
2022-12-04T15:48:01.966Z,96705.22
2022-12-04T15:50:30.784Z,96855.88
2022-12-04T15:53:08.387Z,96856.03
2022-12-04T15:55:47.095Z,96701.25
2022-12-04T15:58:20.083Z,96683.63
2022-12-04T16:00:46.723Z,96855.44
2022-12-04T16:03:27.065Z,96733.94
2022-12-04T16:06:23.370Z,96866.56
2022-12-04T16:09:12.079Z,96849.34
2022-12-04T16:11:39.825Z,96869.31
2022-12-04T16:14:09.256Z,96705.25
2022-12-04T16:16:38.357Z,96888.06
2022-12-04T16:19:29.067Z,96873.81
2022-12-04T16:21:56.282Z,96636.38
2022-12-04T16:24:23.452Z,96665.44
2022-12-04T16:26:51.298Z,96896.91
2022-12-04T16:29:18.378Z,96775.75
2022-12-04T16:31:48.168Z,96781.84
2022-12-04T16:34:14.951Z,96774.91
2022-12-04T16:36:41.878Z,96849.19
2022-12-04T16:39:08.596Z,96882.72
2022-12-04T16:41:35.168Z,96891.34
2022-12-04T16:44:04.236Z,96892.03
2022-12-04T16:46:35.429Z,96756.81
2022-12-04T16:49:07.214Z,96886.69
2022-12-04T16:51:40.001Z,96891.91
2022-12-04T16:54:11.526Z,96885.25
2022-12-04T16:56:38.102Z,96769.75
2022-12-04T16:59:08.925Z,96888.69
2022-12-04T17:01:44.202Z,96891.13
2022-12-04T17:04:11.214Z,96884.25
2022-12-04T17:06:38.402Z,96872.13
2022-12-04T17:09:05.862Z,96812.03
2022-12-04T17:11:32.463Z,96858.09
2022-12-04T17:13:59.091Z,96889.34
2022-12-04T17:16:25.796Z,96660.34
2022-12-04T17:18:52.372Z,96885.41
2022-12-04T17:21:19.054Z,96704.88
2022-12-04T17:23:45.652Z,96852.63
2022-12-04T17:26:14.812Z,96871.53
2022-12-04T17:28:43.576Z,96637.50
2022-12-04T17:31:28.976Z,96694.53
2022-12-04T17:33:56.569Z,96835.63
2022-12-04T17:36:26.076Z,96848.28
2022-12-04T17:38:57.472Z,96800.00
2022-12-04T17:41:24.451Z,96858.00
2022-12-04T17:43:51.207Z,96633.00
2022-12-04T17:46:21.550Z,96826.06
2022-12-04T17:48:49.048Z,96801.00
2022-12-04T17:51:18.983Z,96871.19
2022-12-04T17:53:45.695Z,96837.94
2022-12-04T17:56:16.126Z,96867.94
2022-12-04T17:58:46.411Z,96866.81
2022-12-04T18:01:16.739Z,96876.28
2022-12-04T18:03:44.389Z,96869.75
2022-12-04T18:06:16.780Z,96725.06
2022-12-04T18:08:48.323Z,96874.81
2022-12-04T18:11:18.695Z,96798.03
2022-12-04T18:13:45.356Z,96875.66
2022-12-04T18:16:12.492Z,96721.94
2022-12-04T18:18:39.324Z,96876.66
2022-12-04T18:21:11.892Z,96841.03
2022-12-04T18:23:44.397Z,96874.81
2022-12-04T18:26:12.814Z,96872.03
2022-12-04T18:28:42.904Z,96873.19
2022-12-04T18:31:09.871Z,96863.25
2022-12-04T18:33:40.276Z,96874.31
2022-12-04T18:36:12.009Z,96766.06
2022-12-04T18:38:38.901Z,96877.59
2022-12-04T18:41:07.880Z,96786.56
2022-12-04T18:43:42.968Z,96779.34
2022-12-04T18:46:12.498Z,96875.16
2022-12-04T18:48:40.568Z,96856.16
2022-12-04T18:51:40.867Z,96876.78
2022-12-04T18:54:12.419Z,96885.28
2022-12-04T18:56:39.856Z,96729.06
2022-12-04T18:59:24.231Z,96884.47
2022-12-04T19:01:51.611Z,96894.78
2022-12-04T19:04:20.327Z,96888.88
2022-12-04T19:06:51.275Z,96891.34
2022-12-04T19:09:20.906Z,96892.94
2022-12-04T19:11:48.259Z,96774.56
2022-12-04T19:14:22.989Z,96894.25
2022-12-04T19:16:51.153Z,96902.09
2022-12-04T19:19:18.320Z,96894.25
2022-12-04T19:21:45.160Z,96904.88
2022-12-04T19:24:12.209Z,96905.81
2022-12-04T19:26:39.817Z,96912.84
2022-12-04T19:29:07.924Z,96917.94
2022-12-04T19:31:37.164Z,96915.31
2022-12-04T19:34:05.129Z,96916.78
2022-12-04T19:36:32.761Z,96869.75
2022-12-04T19:39:00.372Z,96791.81
2022-12-04T19:41:37.119Z,96598.22
2022-12-04T19:44:20.006Z,96798.34
2022-12-04T19:46:51.006Z,96914.31
2022-12-04T19:49:17.600Z,96630.13
2022-12-04T19:51:44.330Z,96863.84
2022-12-04T19:54:12.891Z,96907.16
2022-12-04T19:56:39.623Z,96768.06
2022-12-04T19:59:08.149Z,96717.47
2022-12-04T20:01:35.467Z,96933.75
2022-12-04T20:04:05.448Z,96922.31
2022-12-04T20:06:43.226Z,96807.97
2022-12-04T20:09:12.761Z,96912.97
2022-12-04T20:11:39.823Z,96787.84
2022-12-04T20:14:07.715Z,96920.53
2022-12-04T20:16:35.464Z,96922.16
2022-12-04T20:19:03.593Z,96603.72
2022-12-04T20:21:31.900Z,96923.78
2022-12-04T20:24:02.451Z,96876.53
2022-12-04T20:26:31.959Z,96928.06
2022-12-04T20:29:00.621Z,96924.47
2022-12-04T20:31:39.707Z,96925.53
2022-12-04T20:34:08.660Z,96928.72
2022-12-04T20:36:40.882Z,96922.00
2022-12-04T20:39:09.042Z,96922.84
2022-12-04T20:41:36.780Z,96929.00
2022-12-04T20:44:06.443Z,96927.22
2022-12-04T20:46:38.538Z,96933.44
2022-12-04T20:49:09.240Z,96939.47
2022-12-04T20:51:38.649Z,96940.28
2022-12-04T20:54:06.445Z,96938.50
2022-12-04T20:56:35.384Z,96938.66
2022-12-04T20:59:08.130Z,96907.97
2022-12-04T21:01:35.798Z,96951.72
2022-12-04T21:04:03.232Z,96946.50
2022-12-04T21:06:38.150Z,96929.41
2022-12-04T21:09:22.398Z,96891.19
2022-12-04T21:11:54.646Z,96915.81
2022-12-04T21:14:45.739Z,96932.25
2022-12-04T21:17:18.260Z,96940.97
2022-12-04T21:19:46.914Z,96960.00
2022-12-04T21:22:14.162Z,96954.78
2022-12-04T21:24:42.097Z,96839.59
2022-12-04T21:27:17.182Z,96956.88
2022-12-04T21:29:48.883Z,96905.63
2022-12-04T21:32:19.272Z,96966.69
2022-12-04T21:34:45.804Z,96763.00
2022-12-04T21:37:13.169Z,96865.66
2022-12-04T21:39:39.834Z,96866.94
2022-12-04T21:42:25.704Z,96817.13
2022-12-04T21:44:52.420Z,96915.56
2022-12-04T21:47:18.984Z,96986.19
2022-12-04T21:49:46.377Z,96921.22
2022-12-04T21:52:13.280Z,96812.59
2022-12-04T21:54:39.865Z,96788.19
2022-12-04T21:57:06.444Z,96938.91
2022-12-04T21:59:33.584Z,96989.44
2022-12-04T22:02:00.563Z,96876.78
2022-12-04T22:04:27.750Z,96997.00
2022-12-04T22:06:54.332Z,96995.22
2022-12-04T22:09:20.911Z,96853.47
2022-12-04T22:11:47.624Z,96988.81
2022-12-04T22:14:14.265Z,96837.00
2022-12-04T22:16:42.897Z,96975.94
2022-12-04T22:19:11.344Z,96874.38
2022-12-04T22:21:37.983Z,97002.34
2022-12-04T22:24:04.969Z,96924.81
2022-12-04T22:26:32.341Z,96887.28
2022-12-04T22:28:59.013Z,96959.41
2022-12-04T22:31:28.079Z,97006.00
2022-12-04T22:33:59.664Z,97015.31
2022-12-04T22:36:29.107Z,96782.41
2022-12-04T22:39:09.473Z,97006.34
2022-12-04T22:41:37.297Z,96876.72
2022-12-04T22:44:04.271Z,96847.94
2022-12-04T22:46:31.002Z,96747.22
2022-12-04T22:48:58.455Z,96917.59
2022-12-04T22:51:25.134Z,96868.41
2022-12-04T22:53:54.005Z,96999.88
2022-12-04T22:56:29.283Z,97002.50
2022-12-04T22:58:57.809Z,96897.13
2022-12-04T23:01:27.019Z,97002.34
2022-12-04T23:03:53.964Z,96946.59
2022-12-04T23:06:23.807Z,97007.56
2022-12-04T23:08:57.864Z,97011.63
2022-12-04T23:11:25.933Z,96966.06
2022-12-04T23:13:59.913Z,96854.34
2022-12-04T23:16:29.192Z,97017.16
2022-12-04T23:18:56.166Z,96969.25
2022-12-04T23:21:23.861Z,97026.50
2022-12-04T23:23:51.961Z,97028.13
2022-12-04T23:26:21.320Z,97027.31
2022-12-04T23:28:48.016Z,97032.41
2022-12-04T23:31:15.487Z,96992.28
2022-12-04T23:33:42.640Z,97035.81
2022-12-04T23:36:11.302Z,96854.78
2022-12-04T23:38:39.892Z,96902.69
2022-12-04T23:41:13.933Z,97036.34
2022-12-04T23:43:41.173Z,97031.94
2022-12-04T23:46:11.524Z,96880.25
2022-12-04T23:48:40.439Z,97036.50
2022-12-04T23:51:08.466Z,97038.16
2022-12-04T23:53:35.462Z,97028.44
2022-12-04T23:56:07.492Z,96863.59
2022-12-04T23:58:35.556Z,97051.47
